sensor_id;sensor_type;location;lat;lon;timestamp;P1;durP1;ratioP1;P2;durP2;ratioP2
60502;SDS011;51448;51.660;5.824;2023-12-28T00:00:50;2.75;;;1.92;;
60502;SDS011;51448;51.660;5.824;2023-12-28T00:03:18;4.60;;;1.80;;
60502;SDS011;51448;51.660;5.824;2023-12-28T00:05:46;4.60;;;1.83;;
60502;SDS011;51448;51.660;5.824;2023-12-28T00:08:14;5.20;;;1.95;;
60502;SDS011;51448;51.660;5.824;2023-12-28T00:10:41;3.17;;;1.95;;
60502;SDS011;51448;51.660;5.824;2023-12-28T00:13:09;3.95;;;2.40;;
60502;SDS011;51448;51.660;5.824;2023-12-28T00:15:37;4.20;;;2.25;;
60502;SDS011;51448;51.660;5.824;2023-12-28T00:18:04;4.80;;;2.00;;
60502;SDS011;51448;51.660;5.824;2023-12-28T00:20:32;2.67;;;1.90;;
60502;SDS011;51448;51.660;5.824;2023-12-28T00:22:59;3.25;;;1.77;;
60502;SDS011;51448;51.660;5.824;2023-12-28T00:25:27;3.13;;;1.90;;
60502;SDS011;51448;51.660;5.824;2023-12-28T00:27:55;3.10;;;2.28;;
60502;SDS011;51448;51.660;5.824;2023-12-28T00:30:23;2.55;;;2.13;;
60502;SDS011;51448;51.660;5.824;2023-12-28T00:32:50;3.53;;;1.77;;
60502;SDS011;51448;51.660;5.824;2023-12-28T00:35:18;6.75;;;2.88;;
60502;SDS011;51448;51.660;5.824;2023-12-28T00:37:47;4.45;;;2.30;;
60502;SDS011;51448;51.660;5.824;2023-12-28T00:40:15;5.20;;;2.38;;
60502;SDS011;51448;51.660;5.824;2023-12-28T00:42:42;3.85;;;2.15;;
60502;SDS011;51448;51.660;5.824;2023-12-28T00:45:10;6.35;;;2.63;;
60502;SDS011;51448;51.660;5.824;2023-12-28T00:47:38;4.85;;;1.85;;
60502;SDS011;51448;51.660;5.824;2023-12-28T00:50:06;4.25;;;1.92;;
60502;SDS011;51448;51.660;5.824;2023-12-28T00:52:34;6.78;;;2.13;;
60502;SDS011;51448;51.660;5.824;2023-12-28T00:55:02;3.63;;;2.35;;
60502;SDS011;51448;51.660;5.824;2023-12-28T00:57:31;3.35;;;2.13;;
60502;SDS011;51448;51.660;5.824;2023-12-28T00:59:58;3.17;;;2.00;;
60502;SDS011;51448;51.660;5.824;2023-12-28T01:02:26;4.32;;;2.30;;
60502;SDS011;51448;51.660;5.824;2023-12-28T01:04:54;4.03;;;2.28;;
60502;SDS011;51448;51.660;5.824;2023-12-28T01:07:22;4.57;;;2.15;;
60502;SDS011;51448;51.660;5.824;2023-12-28T01:09:50;3.83;;;2.05;;
60502;SDS011;51448;51.660;5.824;2023-12-28T01:12:18;5.15;;;2.50;;
60502;SDS011;51448;51.660;5.824;2023-12-28T01:14:46;3.95;;;2.20;;
60502;SDS011;51448;51.660;5.824;2023-12-28T01:17:14;5.57;;;2.42;;
60502;SDS011;51448;51.660;5.824;2023-12-28T01:19:42;3.38;;;2.20;;
60502;SDS011;51448;51.660;5.824;2023-12-28T01:22:10;4.38;;;2.65;;
60502;SDS011;51448;51.660;5.824;2023-12-28T01:24:38;3.90;;;2.38;;
60502;SDS011;51448;51.660;5.824;2023-12-28T01:27:06;5.88;;;2.95;;
60502;SDS011;51448;51.660;5.824;2023-12-28T01:29:34;6.10;;;2.60;;
60502;SDS011;51448;51.660;5.824;2023-12-28T01:32:02;4.40;;;2.15;;
60502;SDS011;51448;51.660;5.824;2023-12-28T01:34:31;3.55;;;2.20;;
60502;SDS011;51448;51.660;5.824;2023-12-28T01:36:59;6.68;;;2.30;;
60502;SDS011;51448;51.660;5.824;2023-12-28T01:39:26;6.72;;;2.53;;
60502;SDS011;51448;51.660;5.824;2023-12-28T01:41:54;7.35;;;2.50;;
60502;SDS011;51448;51.660;5.824;2023-12-28T01:44:22;5.10;;;2.60;;
60502;SDS011;51448;51.660;5.824;2023-12-28T01:46:50;8.52;;;2.33;;
60502;SDS011;51448;51.660;5.824;2023-12-28T01:49:17;6.78;;;2.42;;
60502;SDS011;51448;51.660;5.824;2023-12-28T01:51:47;5.43;;;2.50;;
60502;SDS011;51448;51.660;5.824;2023-12-28T01:54:16;3.42;;;2.08;;
60502;SDS011;51448;51.660;5.824;2023-12-28T01:56:44;4.03;;;1.98;;
60502;SDS011;51448;51.660;5.824;2023-12-28T01:59:13;6.63;;;2.67;;
60502;SDS011;51448;51.660;5.824;2023-12-28T02:01:41;5.20;;;2.15;;
60502;SDS011;51448;51.660;5.824;2023-12-28T02:04:09;5.30;;;2.17;;
60502;SDS011;51448;51.660;5.824;2023-12-28T02:06:37;4.25;;;2.00;;
60502;SDS011;51448;51.660;5.824;2023-12-28T02:09:05;7.78;;;2.47;;
60502;SDS011;51448;51.660;5.824;2023-12-28T02:11:38;3.40;;;1.98;;
60502;SDS011;51448;51.660;5.824;2023-12-28T02:14:06;4.63;;;1.95;;
60502;SDS011;51448;51.660;5.824;2023-12-28T02:16:33;6.70;;;2.17;;
60502;SDS011;51448;51.660;5.824;2023-12-28T02:19:53;5.88;;;2.22;;
60502;SDS011;51448;51.660;5.824;2023-12-28T02:22:26;6.35;;;2.08;;
60502;SDS011;51448;51.660;5.824;2023-12-28T02:25:04;5.15;;;2.40;;
60502;SDS011;51448;51.660;5.824;2023-12-28T02:27:43;3.42;;;2.03;;
60502;SDS011;51448;51.660;5.824;2023-12-28T02:30:16;4.72;;;2.33;;
60502;SDS011;51448;51.660;5.824;2023-12-28T02:35:24;5.05;;;2.10;;
60502;SDS011;51448;51.660;5.824;2023-12-28T02:38:03;6.35;;;2.25;;
60502;SDS011;51448;51.660;5.824;2023-12-28T02:40:37;5.55;;;1.95;;
60502;SDS011;51448;51.660;5.824;2023-12-28T02:43:07;7.03;;;2.80;;
60502;SDS011;51448;51.660;5.824;2023-12-28T02:45:36;7.47;;;2.10;;
60502;SDS011;51448;51.660;5.824;2023-12-28T02:48:07;4.20;;;1.73;;
60502;SDS011;51448;51.660;5.824;2023-12-28T02:50:37;5.93;;;2.72;;
60502;SDS011;51448;51.660;5.824;2023-12-28T02:53:04;3.15;;;1.60;;
60502;SDS011;51448;51.660;5.824;2023-12-28T02:55:32;7.32;;;1.95;;
60502;SDS011;51448;51.660;5.824;2023-12-28T02:58:00;7.00;;;1.73;;
60502;SDS011;51448;51.660;5.824;2023-12-28T03:00:29;7.68;;;2.08;;
60502;SDS011;51448;51.660;5.824;2023-12-28T03:02:57;4.07;;;2.00;;
60502;SDS011;51448;51.660;5.824;2023-12-28T03:05:25;5.68;;;2.25;;
60502;SDS011;51448;51.660;5.824;2023-12-28T03:07:52;5.70;;;2.47;;
60502;SDS011;51448;51.660;5.824;2023-12-28T03:10:23;4.90;;;2.00;;
60502;SDS011;51448;51.660;5.824;2023-12-28T03:12:50;6.78;;;2.35;;
60502;SDS011;51448;51.660;5.824;2023-12-28T03:15:18;5.30;;;2.47;;
60502;SDS011;51448;51.660;5.824;2023-12-28T03:17:45;7.22;;;2.20;;
60502;SDS011;51448;51.660;5.824;2023-12-28T03:20:14;4.40;;;2.08;;
60502;SDS011;51448;51.660;5.824;2023-12-28T03:22:44;7.38;;;2.20;;
60502;SDS011;51448;51.660;5.824;2023-12-28T03:25:12;5.38;;;2.35;;
60502;SDS011;51448;51.660;5.824;2023-12-28T03:27:39;5.40;;;1.95;;
60502;SDS011;51448;51.660;5.824;2023-12-28T03:30:08;5.70;;;1.90;;
60502;SDS011;51448;51.660;5.824;2023-12-28T03:32:38;6.68;;;2.03;;
60502;SDS011;51448;51.660;5.824;2023-12-28T03:35:06;5.43;;;1.83;;
60502;SDS011;51448;51.660;5.824;2023-12-28T03:37:34;4.80;;;2.00;;
60502;SDS011;51448;51.660;5.824;2023-12-28T03:40:02;4.20;;;1.98;;
60502;SDS011;51448;51.660;5.824;2023-12-28T03:42:30;4.78;;;2.28;;
60502;SDS011;51448;51.660;5.824;2023-12-28T03:44:58;5.40;;;2.05;;
60502;SDS011;51448;51.660;5.824;2023-12-28T03:47:26;3.40;;;1.85;;
60502;SDS011;51448;51.660;5.824;2023-12-28T03:49:53;9.93;;;2.10;;
60502;SDS011;51448;51.660;5.824;2023-12-28T03:52:27;3.33;;;1.80;;
60502;SDS011;51448;51.660;5.824;2023-12-28T03:54:57;3.65;;;2.13;;
60502;SDS011;51448;51.660;5.824;2023-12-28T03:57:25;6.20;;;2.78;;
60502;SDS011;51448;51.660;5.824;2023-12-28T03:59:54;6.72;;;2.42;;
60502;SDS011;51448;51.660;5.824;2023-12-28T04:02:23;4.35;;;1.50;;
60502;SDS011;51448;51.660;5.824;2023-12-28T04:04:51;8.65;;;2.15;;
60502;SDS011;51448;51.660;5.824;2023-12-28T04:07:19;9.20;;;2.38;;
60502;SDS011;51448;51.660;5.824;2023-12-28T04:09:47;3.78;;;1.92;;
60502;SDS011;51448;51.660;5.824;2023-12-28T04:12:15;4.60;;;2.15;;
60502;SDS011;51448;51.660;5.824;2023-12-28T04:14:42;3.95;;;2.08;;
60502;SDS011;51448;51.660;5.824;2023-12-28T04:17:10;6.65;;;2.35;;
60502;SDS011;51448;51.660;5.824;2023-12-28T04:19:39;5.10;;;2.08;;
60502;SDS011;51448;51.660;5.824;2023-12-28T04:22:07;7.15;;;2.55;;
60502;SDS011;51448;51.660;5.824;2023-12-28T04:24:34;3.90;;;1.90;;
60502;SDS011;51448;51.660;5.824;2023-12-28T04:27:03;4.82;;;1.77;;
60502;SDS011;51448;51.660;5.824;2023-12-28T04:29:31;5.82;;;1.95;;
60502;SDS011;51448;51.660;5.824;2023-12-28T04:31:59;9.90;;;2.25;;
60502;SDS011;51448;51.660;5.824;2023-12-28T04:34:27;4.07;;;1.60;;
60502;SDS011;51448;51.660;5.824;2023-12-28T04:36:55;9.38;;;2.33;;
60502;SDS011;51448;51.660;5.824;2023-12-28T04:39:22;4.85;;;2.08;;
60502;SDS011;51448;51.660;5.824;2023-12-28T04:41:51;4.93;;;2.13;;
60502;SDS011;51448;51.660;5.824;2023-12-28T04:44:20;6.50;;;2.40;;
60502;SDS011;51448;51.660;5.824;2023-12-28T04:46:48;5.97;;;1.85;;
60502;SDS011;51448;51.660;5.824;2023-12-28T04:49:16;6.63;;;1.70;;
60502;SDS011;51448;51.660;5.824;2023-12-28T04:51:43;7.35;;;1.83;;
60502;SDS011;51448;51.660;5.824;2023-12-28T04:54:11;4.35;;;1.80;;
60502;SDS011;51448;51.660;5.824;2023-12-28T04:56:40;7.85;;;1.95;;
60502;SDS011;51448;51.660;5.824;2023-12-28T04:59:07;8.13;;;1.83;;
60502;SDS011;51448;51.660;5.824;2023-12-28T05:01:40;6.82;;;2.25;;
60502;SDS011;51448;51.660;5.824;2023-12-28T05:04:09;9.43;;;2.15;;
60502;SDS011;51448;51.660;5.824;2023-12-28T05:06:44;6.95;;;1.88;;
60502;SDS011;51448;51.660;5.824;2023-12-28T05:09:14;8.07;;;2.53;;
60502;SDS011;51448;51.660;5.824;2023-12-28T05:11:42;9.93;;;2.88;;
60502;SDS011;51448;51.660;5.824;2023-12-28T05:14:10;11.63;;;1.80;;
60502;SDS011;51448;51.660;5.824;2023-12-28T05:16:38;6.88;;;1.73;;
60502;SDS011;51448;51.660;5.824;2023-12-28T05:19:06;5.75;;;2.15;;
60502;SDS011;51448;51.660;5.824;2023-12-28T05:21:34;6.85;;;2.40;;
60502;SDS011;51448;51.660;5.824;2023-12-28T05:24:01;4.18;;;1.73;;
60502;SDS011;51448;51.660;5.824;2023-12-28T05:26:29;7.68;;;2.20;;
60502;SDS011;51448;51.660;5.824;2023-12-28T05:28:56;15.10;;;2.67;;
60502;SDS011;51448;51.660;5.824;2023-12-28T05:31:24;11.05;;;2.83;;
60502;SDS011;51448;51.660;5.824;2023-12-28T05:33:53;13.73;;;3.25;;
60502;SDS011;51448;51.660;5.824;2023-12-28T05:36:20;12.45;;;1.90;;
60502;SDS011;51448;51.660;5.824;2023-12-28T05:38:48;12.05;;;2.35;;
60502;SDS011;51448;51.660;5.824;2023-12-28T05:41:16;11.07;;;2.80;;
60502;SDS011;51448;51.660;5.824;2023-12-28T05:43:47;8.98;;;2.30;;
60502;SDS011;51448;51.660;5.824;2023-12-28T05:46:15;7.30;;;2.20;;
60502;SDS011;51448;51.660;5.824;2023-12-28T05:48:42;7.78;;;2.65;;
60502;SDS011;51448;51.660;5.824;2023-12-28T05:51:10;10.55;;;2.35;;
60502;SDS011;51448;51.660;5.824;2023-12-28T05:53:37;10.45;;;2.08;;
60502;SDS011;51448;51.660;5.824;2023-12-28T05:56:06;20.08;;;3.05;;
60502;SDS011;51448;51.660;5.824;2023-12-28T05:58:35;9.60;;;2.38;;
60502;SDS011;51448;51.660;5.824;2023-12-28T06:01:04;10.43;;;2.60;;
60502;SDS011;51448;51.660;5.824;2023-12-28T06:03:34;15.80;;;2.53;;
60502;SDS011;51448;51.660;5.824;2023-12-28T06:06:02;15.70;;;3.05;;
60502;SDS011;51448;51.660;5.824;2023-12-28T06:08:30;15.27;;;2.40;;
60502;SDS011;51448;51.660;5.824;2023-12-28T06:10:58;14.18;;;1.83;;
60502;SDS011;51448;51.660;5.824;2023-12-28T06:13:25;8.30;;;2.13;;
60502;SDS011;51448;51.660;5.824;2023-12-28T06:15:53;7.22;;;2.35;;
60502;SDS011;51448;51.660;5.824;2023-12-28T06:18:21;10.45;;;2.90;;
60502;SDS011;51448;51.660;5.824;2023-12-28T06:20:49;14.68;;;3.22;;
60502;SDS011;51448;51.660;5.824;2023-12-28T06:23:16;10.05;;;1.95;;
60502;SDS011;51448;51.660;5.824;2023-12-28T06:25:44;8.07;;;2.20;;
60502;SDS011;51448;51.660;5.824;2023-12-28T06:28:12;12.05;;;2.42;;
60502;SDS011;51448;51.660;5.824;2023-12-28T06:30:39;12.60;;;2.13;;
60502;SDS011;51448;51.660;5.824;2023-12-28T06:33:07;10.52;;;2.78;;
60502;SDS011;51448;51.660;5.824;2023-12-28T06:35:35;11.15;;;2.15;;
60502;SDS011;51448;51.660;5.824;2023-12-28T06:38:02;14.43;;;2.85;;
60502;SDS011;51448;51.660;5.824;2023-12-28T06:40:30;13.32;;;2.70;;
60502;SDS011;51448;51.660;5.824;2023-12-28T06:42:58;15.40;;;2.80;;
60502;SDS011;51448;51.660;5.824;2023-12-28T06:45:26;10.73;;;2.13;;
60502;SDS011;51448;51.660;5.824;2023-12-28T06:47:55;13.25;;;2.65;;
60502;SDS011;51448;51.660;5.824;2023-12-28T06:50:23;8.10;;;2.10;;
60502;SDS011;51448;51.660;5.824;2023-12-28T06:52:51;10.48;;;2.58;;
60502;SDS011;51448;51.660;5.824;2023-12-28T06:55:20;12.80;;;2.42;;
60502;SDS011;51448;51.660;5.824;2023-12-28T06:57:47;12.13;;;2.42;;
60502;SDS011;51448;51.660;5.824;2023-12-28T07:00:15;7.78;;;2.22;;
60502;SDS011;51448;51.660;5.824;2023-12-28T07:02:43;10.55;;;2.65;;
60502;SDS011;51448;51.660;5.824;2023-12-28T07:05:11;16.42;;;3.35;;
60502;SDS011;51448;51.660;5.824;2023-12-28T07:07:41;15.75;;;2.45;;
60502;SDS011;51448;51.660;5.824;2023-12-28T07:10:08;9.82;;;2.20;;
60502;SDS011;51448;51.660;5.824;2023-12-28T07:12:36;12.77;;;2.78;;
60502;SDS011;51448;51.660;5.824;2023-12-28T07:15:04;14.52;;;2.80;;
60502;SDS011;51448;51.660;5.824;2023-12-28T07:17:32;11.30;;;2.65;;
60502;SDS011;51448;51.660;5.824;2023-12-28T07:19:59;17.42;;;3.22;;
60502;SDS011;51448;51.660;5.824;2023-12-28T07:22:27;10.02;;;2.55;;
60502;SDS011;51448;51.660;5.824;2023-12-28T07:24:55;15.95;;;3.25;;
60502;SDS011;51448;51.660;5.824;2023-12-28T07:27:23;14.07;;;2.53;;
60502;SDS011;51448;51.660;5.824;2023-12-28T07:29:50;11.75;;;2.58;;
60502;SDS011;51448;51.660;5.824;2023-12-28T07:32:18;11.70;;;3.40;;
60502;SDS011;51448;51.660;5.824;2023-12-28T07:34:47;20.52;;;2.75;;
60502;SDS011;51448;51.660;5.824;2023-12-28T07:37:15;10.10;;;2.85;;
60502;SDS011;51448;51.660;5.824;2023-12-28T07:39:43;14.55;;;3.00;;
60502;SDS011;51448;51.660;5.824;2023-12-28T07:42:11;12.38;;;2.30;;
60502;SDS011;51448;51.660;5.824;2023-12-28T07:44:39;15.07;;;2.75;;
60502;SDS011;51448;51.660;5.824;2023-12-28T07:47:07;10.10;;;2.83;;
60502;SDS011;51448;51.660;5.824;2023-12-28T07:49:36;11.45;;;2.22;;
60502;SDS011;51448;51.660;5.824;2023-12-28T07:52:04;15.95;;;2.40;;
60502;SDS011;51448;51.660;5.824;2023-12-28T07:54:32;14.55;;;2.80;;
60502;SDS011;51448;51.660;5.824;2023-12-28T07:56:59;18.35;;;3.35;;
60502;SDS011;51448;51.660;5.824;2023-12-28T07:59:27;11.40;;;2.83;;
60502;SDS011;51448;51.660;5.824;2023-12-28T08:01:55;12.50;;;2.90;;
60502;SDS011;51448;51.660;5.824;2023-12-28T08:04:24;20.23;;;3.35;;
60502;SDS011;51448;51.660;5.824;2023-12-28T08:06:51;12.73;;;2.83;;
60502;SDS011;51448;51.660;5.824;2023-12-28T08:09:19;17.13;;;3.65;;
60502;SDS011;51448;51.660;5.824;2023-12-28T08:11:47;14.65;;;3.47;;
60502;SDS011;51448;51.660;5.824;2023-12-28T08:14:16;15.18;;;2.97;;
60502;SDS011;51448;51.660;5.824;2023-12-28T08:16:43;15.23;;;2.20;;
60502;SDS011;51448;51.660;5.824;2023-12-28T08:19:11;19.80;;;2.88;;
60502;SDS011;51448;51.660;5.824;2023-12-28T08:21:39;10.88;;;2.97;;
60502;SDS011;51448;51.660;5.824;2023-12-28T08:24:06;12.30;;;2.85;;
60502;SDS011;51448;51.660;5.824;2023-12-28T08:26:34;15.20;;;3.40;;
60502;SDS011;51448;51.660;5.824;2023-12-28T08:29:01;9.65;;;2.80;;
60502;SDS011;51448;51.660;5.824;2023-12-28T08:31:30;12.80;;;3.85;;
60502;SDS011;51448;51.660;5.824;2023-12-28T08:33:58;17.98;;;3.70;;
60502;SDS011;51448;51.660;5.824;2023-12-28T08:36:25;21.02;;;3.15;;
60502;SDS011;51448;51.660;5.824;2023-12-28T08:38:53;12.77;;;3.00;;
60502;SDS011;51448;51.660;5.824;2023-12-28T08:41:27;14.25;;;3.58;;
60502;SDS011;51448;51.660;5.824;2023-12-28T08:43:55;16.52;;;3.50;;
60502;SDS011;51448;51.660;5.824;2023-12-28T08:46:24;13.80;;;3.25;;
60502;SDS011;51448;51.660;5.824;2023-12-28T08:48:52;16.45;;;2.60;;
60502;SDS011;51448;51.660;5.824;2023-12-28T08:51:20;13.07;;;3.13;;
60502;SDS011;51448;51.660;5.824;2023-12-28T08:53:49;14.60;;;2.40;;
60502;SDS011;51448;51.660;5.824;2023-12-28T08:56:17;10.77;;;2.28;;
60502;SDS011;51448;51.660;5.824;2023-12-28T08:58:48;21.08;;;3.83;;
60502;SDS011;51448;51.660;5.824;2023-12-28T09:01:17;15.48;;;3.47;;
60502;SDS011;51448;51.660;5.824;2023-12-28T09:03:49;16.55;;;3.72;;
60502;SDS011;51448;51.660;5.824;2023-12-28T09:06:18;11.65;;;2.50;;
60502;SDS011;51448;51.660;5.824;2023-12-28T09:08:49;14.38;;;3.58;;
60502;SDS011;51448;51.660;5.824;2023-12-28T09:11:19;18.27;;;2.88;;
60502;SDS011;51448;51.660;5.824;2023-12-28T09:13:49;16.00;;;3.47;;
60502;SDS011;51448;51.660;5.824;2023-12-28T09:16:16;14.23;;;3.00;;
60502;SDS011;51448;51.660;5.824;2023-12-28T09:18:44;14.20;;;2.58;;
60502;SDS011;51448;51.660;5.824;2023-12-28T09:21:13;11.15;;;3.22;;
60502;SDS011;51448;51.660;5.824;2023-12-28T09:23:41;14.07;;;2.38;;
60502;SDS011;51448;51.660;5.824;2023-12-28T09:26:08;16.08;;;3.30;;
60502;SDS011;51448;51.660;5.824;2023-12-28T09:28:36;11.98;;;3.50;;
60502;SDS011;51448;51.660;5.824;2023-12-28T09:31:04;11.68;;;2.88;;
60502;SDS011;51448;51.660;5.824;2023-12-28T09:33:32;16.02;;;2.72;;
60502;SDS011;51448;51.660;5.824;2023-12-28T09:36:00;15.30;;;3.40;;
60502;SDS011;51448;51.660;5.824;2023-12-28T09:38:31;17.20;;;3.38;;
60502;SDS011;51448;51.660;5.824;2023-12-28T09:40:58;21.20;;;3.08;;
60502;SDS011;51448;51.660;5.824;2023-12-28T09:43:41;15.38;;;3.97;;
60502;SDS011;51448;51.660;5.824;2023-12-28T09:46:22;24.63;;;4.10;;
60502;SDS011;51448;51.660;5.824;2023-12-28T09:48:49;14.45;;;3.35;;
60502;SDS011;51448;51.660;5.824;2023-12-28T09:51:19;14.80;;;3.13;;
60502;SDS011;51448;51.660;5.824;2023-12-28T09:53:47;11.13;;;2.38;;
60502;SDS011;51448;51.660;5.824;2023-12-28T09:56:15;12.82;;;2.45;;
60502;SDS011;51448;51.660;5.824;2023-12-28T09:58:43;15.45;;;2.30;;
60502;SDS011;51448;51.660;5.824;2023-12-28T10:01:13;18.42;;;3.22;;
60502;SDS011;51448;51.660;5.824;2023-12-28T10:03:42;10.18;;;3.05;;
60502;SDS011;51448;51.660;5.824;2023-12-28T10:06:10;14.02;;;2.45;;
60502;SDS011;51448;51.660;5.824;2023-12-28T10:08:44;12.63;;;2.83;;
60502;SDS011;51448;51.660;5.824;2023-12-28T10:11:15;23.10;;;3.47;;
60502;SDS011;51448;51.660;5.824;2023-12-28T10:13:45;15.10;;;3.90;;
60502;SDS011;51448;51.660;5.824;2023-12-28T10:16:12;13.30;;;2.80;;
60502;SDS011;51448;51.660;5.824;2023-12-28T10:18:43;20.67;;;4.07;;
60502;SDS011;51448;51.660;5.824;2023-12-28T10:21:12;15.48;;;2.70;;
60502;SDS011;51448;51.660;5.824;2023-12-28T10:23:40;14.98;;;2.85;;
60502;SDS011;51448;51.660;5.824;2023-12-28T10:26:08;12.80;;;2.88;;
60502;SDS011;51448;51.660;5.824;2023-12-28T10:28:36;16.67;;;2.83;;
60502;SDS011;51448;51.660;5.824;2023-12-28T10:31:05;15.88;;;3.53;;
60502;SDS011;51448;51.660;5.824;2023-12-28T10:33:35;13.98;;;2.95;;
60502;SDS011;51448;51.660;5.824;2023-12-28T10:36:07;18.42;;;4.25;;
60502;SDS011;51448;51.660;5.824;2023-12-28T10:38:37;11.45;;;3.13;;
60502;SDS011;51448;51.660;5.824;2023-12-28T10:41:08;12.50;;;2.50;;
60502;SDS011;51448;51.660;5.824;2023-12-28T10:46:27;12.68;;;2.20;;
60502;SDS011;51448;51.660;5.824;2023-12-28T10:49:05;13.00;;;2.55;;
60502;SDS011;51448;51.660;5.824;2023-12-28T10:51:40;18.02;;;3.53;;
60502;SDS011;51448;51.660;5.824;2023-12-28T10:57:26;13.98;;;3.25;;
60502;SDS011;51448;51.660;5.824;2023-12-28T11:00:02;14.98;;;2.85;;
60502;SDS011;51448;51.660;5.824;2023-12-28T11:02:39;11.30;;;3.00;;
60502;SDS011;51448;51.660;5.824;2023-12-28T11:05:13;9.98;;;2.42;;
60502;SDS011;51448;51.660;5.824;2023-12-28T11:07:44;10.10;;;2.45;;
60502;SDS011;51448;51.660;5.824;2023-12-28T11:10:14;13.88;;;2.85;;
60502;SDS011;51448;51.660;5.824;2023-12-28T11:12:45;19.15;;;3.33;;
60502;SDS011;51448;51.660;5.824;2023-12-28T11:15:15;14.82;;;3.55;;
60502;SDS011;51448;51.660;5.824;2023-12-28T11:17:44;8.73;;;2.38;;
60502;SDS011;51448;51.660;5.824;2023-12-28T11:20:11;15.27;;;3.45;;
60502;SDS011;51448;51.660;5.824;2023-12-28T11:22:41;11.57;;;2.90;;
60502;SDS011;51448;51.660;5.824;2023-12-28T11:25:16;14.23;;;3.08;;
60502;SDS011;51448;51.660;5.824;2023-12-28T11:27:46;14.52;;;3.53;;
60502;SDS011;51448;51.660;5.824;2023-12-28T11:30:21;19.55;;;4.05;;
60502;SDS011;51448;51.660;5.824;2023-12-28T11:32:57;12.32;;;3.20;;
60502;SDS011;51448;51.660;5.824;2023-12-28T11:35:36;17.92;;;2.80;;
60502;SDS011;51448;51.660;5.824;2023-12-28T11:38:08;17.92;;;3.25;;
60502;SDS011;51448;51.660;5.824;2023-12-28T11:40:41;19.65;;;3.42;;
60502;SDS011;51448;51.660;5.824;2023-12-28T11:43:14;18.73;;;3.47;;
60502;SDS011;51448;51.660;5.824;2023-12-28T11:45:48;16.33;;;3.72;;
60502;SDS011;51448;51.660;5.824;2023-12-28T11:48:23;15.15;;;3.00;;
60502;SDS011;51448;51.660;5.824;2023-12-28T11:50:56;14.48;;;2.97;;
60502;SDS011;51448;51.660;5.824;2023-12-28T11:53:26;12.95;;;2.72;;
60502;SDS011;51448;51.660;5.824;2023-12-28T11:56:00;14.25;;;3.15;;
60502;SDS011;51448;51.660;5.824;2023-12-28T11:58:34;13.30;;;2.53;;
60502;SDS011;51448;51.660;5.824;2023-12-28T12:01:05;15.70;;;3.10;;
60502;SDS011;51448;51.660;5.824;2023-12-28T12:03:33;16.25;;;3.60;;
60502;SDS011;51448;51.660;5.824;2023-12-28T12:06:01;21.45;;;3.05;;
60502;SDS011;51448;51.660;5.824;2023-12-28T12:08:28;19.80;;;3.20;;
60502;SDS011;51448;51.660;5.824;2023-12-28T12:11:00;14.77;;;3.22;;
60502;SDS011;51448;51.660;5.824;2023-12-28T12:13:31;13.52;;;3.13;;
60502;SDS011;51448;51.660;5.824;2023-12-28T12:15:59;24.50;;;4.22;;
60502;SDS011;51448;51.660;5.824;2023-12-28T12:18:33;19.70;;;4.05;;
60502;SDS011;51448;51.660;5.824;2023-12-28T12:21:02;15.82;;;3.60;;
60502;SDS011;51448;51.660;5.824;2023-12-28T12:23:30;20.50;;;4.22;;
60502;SDS011;51448;51.660;5.824;2023-12-28T12:25:58;18.00;;;3.20;;
60502;SDS011;51448;51.660;5.824;2023-12-28T12:28:25;14.15;;;3.05;;
60502;SDS011;51448;51.660;5.824;2023-12-28T12:30:53;14.27;;;3.15;;
60502;SDS011;51448;51.660;5.824;2023-12-28T12:33:26;16.08;;;3.22;;
60502;SDS011;51448;51.660;5.824;2023-12-28T12:35:55;21.10;;;4.35;;
60502;SDS011;51448;51.660;5.824;2023-12-28T12:38:23;13.48;;;2.80;;
60502;SDS011;51448;51.660;5.824;2023-12-28T12:40:51;18.83;;;4.03;;
60502;SDS011;51448;51.660;5.824;2023-12-28T12:43:20;13.45;;;3.47;;
60502;SDS011;51448;51.660;5.824;2023-12-28T12:45:51;20.27;;;3.67;;
60502;SDS011;51448;51.660;5.824;2023-12-28T12:48:19;16.27;;;3.42;;
60502;SDS011;51448;51.660;5.824;2023-12-28T12:50:47;16.20;;;3.22;;
60502;SDS011;51448;51.660;5.824;2023-12-28T12:53:16;17.75;;;3.85;;
60502;SDS011;51448;51.660;5.824;2023-12-28T12:55:43;12.00;;;3.38;;
60502;SDS011;51448;51.660;5.824;2023-12-28T12:58:14;16.42;;;2.75;;
60502;SDS011;51448;51.660;5.824;2023-12-28T13:00:44;17.23;;;2.85;;
60502;SDS011;51448;51.660;5.824;2023-12-28T13:03:13;16.60;;;3.10;;
60502;SDS011;51448;51.660;5.824;2023-12-28T13:05:40;22.27;;;3.35;;
60502;SDS011;51448;51.660;5.824;2023-12-28T13:08:11;18.25;;;2.95;;
60502;SDS011;51448;51.660;5.824;2023-12-28T13:10:39;15.43;;;3.75;;
60502;SDS011;51448;51.660;5.824;2023-12-28T13:13:07;17.00;;;3.70;;
60502;SDS011;51448;51.660;5.824;2023-12-28T13:15:35;15.57;;;3.33;;
60502;SDS011;51448;51.660;5.824;2023-12-28T13:18:03;16.23;;;3.72;;
60502;SDS011;51448;51.660;5.824;2023-12-28T13:20:31;20.02;;;3.92;;
60502;SDS011;51448;51.660;5.824;2023-12-28T13:22:58;12.82;;;2.83;;
60502;SDS011;51448;51.660;5.824;2023-12-28T13:25:28;13.82;;;3.70;;
60502;SDS011;51448;51.660;5.824;2023-12-28T13:27:58;16.15;;;3.10;;
60502;SDS011;51448;51.660;5.824;2023-12-28T13:30:26;18.35;;;3.55;;
60502;SDS011;51448;51.660;5.824;2023-12-28T13:32:57;14.88;;;3.22;;
60502;SDS011;51448;51.660;5.824;2023-12-28T13:35:25;21.05;;;4.28;;
60502;SDS011;51448;51.660;5.824;2023-12-28T13:37:53;16.65;;;3.42;;
60502;SDS011;51448;51.660;5.824;2023-12-28T13:40:20;19.50;;;3.45;;
60502;SDS011;51448;51.660;5.824;2023-12-28T13:42:49;18.10;;;3.47;;
60502;SDS011;51448;51.660;5.824;2023-12-28T13:45:17;16.15;;;3.63;;
60502;SDS011;51448;51.660;5.824;2023-12-28T13:47:45;24.27;;;3.95;;
60502;SDS011;51448;51.660;5.824;2023-12-28T13:50:13;15.57;;;3.22;;
60502;SDS011;51448;51.660;5.824;2023-12-28T13:52:41;10.38;;;2.42;;
60502;SDS011;51448;51.660;5.824;2023-12-28T13:55:09;16.77;;;4.13;;
60502;SDS011;51448;51.660;5.824;2023-12-28T13:57:37;19.70;;;3.92;;
60502;SDS011;51448;51.660;5.824;2023-12-28T14:00:05;17.55;;;2.70;;
60502;SDS011;51448;51.660;5.824;2023-12-28T14:02:41;18.38;;;3.33;;
60502;SDS011;51448;51.660;5.824;2023-12-28T14:05:08;20.92;;;3.38;;
60502;SDS011;51448;51.660;5.824;2023-12-28T14:07:37;11.23;;;3.17;;
60502;SDS011;51448;51.660;5.824;2023-12-28T14:10:04;15.02;;;3.38;;
60502;SDS011;51448;51.660;5.824;2023-12-28T14:12:33;21.35;;;4.15;;
60502;SDS011;51448;51.660;5.824;2023-12-28T14:15:01;20.02;;;3.15;;
60502;SDS011;51448;51.660;5.824;2023-12-28T14:17:28;18.70;;;3.72;;
60502;SDS011;51448;51.660;5.824;2023-12-28T14:19:58;16.73;;;3.63;;
60502;SDS011;51448;51.660;5.824;2023-12-28T14:22:25;18.05;;;4.03;;
60502;SDS011;51448;51.660;5.824;2023-12-28T14:24:54;18.50;;;4.10;;
60502;SDS011;51448;51.660;5.824;2023-12-28T14:27:21;17.50;;;3.30;;
60502;SDS011;51448;51.660;5.824;2023-12-28T14:29:50;16.75;;;3.75;;
60502;SDS011;51448;51.660;5.824;2023-12-28T14:32:18;17.13;;;3.55;;
60502;SDS011;51448;51.660;5.824;2023-12-28T14:34:46;21.88;;;3.60;;
60502;SDS011;51448;51.660;5.824;2023-12-28T14:37:14;14.77;;;3.63;;
60502;SDS011;51448;51.660;5.824;2023-12-28T14:39:43;20.23;;;4.00;;
60502;SDS011;51448;51.660;5.824;2023-12-28T14:42:11;18.92;;;3.22;;
60502;SDS011;51448;51.660;5.824;2023-12-28T14:44:41;11.68;;;2.63;;
60502;SDS011;51448;51.660;5.824;2023-12-28T14:47:09;17.90;;;3.60;;
60502;SDS011;51448;51.660;5.824;2023-12-28T14:49:39;15.93;;;3.33;;
60502;SDS011;51448;51.660;5.824;2023-12-28T14:52:07;15.13;;;3.50;;
60502;SDS011;51448;51.660;5.824;2023-12-28T14:54:34;20.60;;;3.85;;
60502;SDS011;51448;51.660;5.824;2023-12-28T14:57:02;19.10;;;3.85;;
60502;SDS011;51448;51.660;5.824;2023-12-28T14:59:30;23.55;;;3.03;;